createdAt,value
2023-04-17T03:46:55.855Z,97.30
2023-04-17T03:49:22.889Z,97.30
2023-04-17T03:51:49.818Z,97.30
2023-04-17T03:54:16.696Z,97.30
2023-04-17T03:56:43.611Z,97.10
2023-04-17T03:59:10.785Z,97.20
2023-04-17T04:01:38.659Z,97.20
2023-04-17T04:04:05.805Z,97.20
2023-04-17T04:06:32.834Z,97.20
2023-04-17T04:08:59.791Z,97.10
2023-04-17T04:11:27.186Z,96.90
2023-04-17T04:13:54.161Z,97.00
2023-04-17T04:16:21.130Z,97.00
2023-04-17T04:18:48.098Z,97.10
2023-04-17T04:21:15.023Z,97.10
2023-04-17T04:23:42.859Z,97.10
2023-04-17T04:26:11.659Z,97.10
2023-04-17T04:28:38.530Z,97.10
2023-04-17T04:31:06.817Z,97.10
2023-04-17T04:33:33.766Z,97.10
2023-04-17T04:36:01.270Z,97.20
2023-04-17T04:38:32.427Z,97.20
2023-04-17T04:41:06.256Z,97.30
2023-04-17T04:43:33.573Z,97.20
2023-04-17T04:46:02.125Z,97.20
2023-04-17T04:48:29.117Z,97.40
2023-04-17T04:50:56.085Z,97.40
2023-04-17T04:53:23.027Z,97.40
2023-04-17T04:55:50.005Z,97.40
2023-04-17T04:58:16.953Z,97.40
2023-04-17T05:00:44.104Z,97.40
2023-04-17T05:03:11.190Z,97.40
2023-04-17T05:05:38.520Z,97.40
2023-04-17T05:08:05.768Z,97.40
2023-04-17T05:10:32.683Z,97.30
2023-04-17T05:12:59.626Z,97.30
2023-04-17T05:15:27.024Z,97.20
2023-04-17T05:17:53.941Z,97.20
2023-04-17T05:20:21.331Z,97.20
2023-04-17T05:22:48.263Z,97.10
2023-04-17T05:25:16.488Z,97.00
2023-04-17T05:27:43.407Z,97.10
2023-04-17T05:30:10.603Z,97.00
2023-04-17T05:32:37.624Z,97.20
2023-04-17T05:35:05.379Z,97.30
2023-04-17T05:37:32.316Z,97.20
2023-04-17T05:40:00.597Z,97.30
2023-04-17T05:42:27.556Z,97.30
2023-04-17T05:44:54.508Z,97.30
2023-04-17T05:47:21.600Z,97.40
2023-04-17T05:49:51.149Z,97.50
2023-04-17T05:52:18.156Z,97.40
2023-04-17T05:54:45.398Z,97.30
2023-04-17T05:57:12.298Z,97.40
2023-04-17T05:59:39.238Z,97.30
2023-04-17T06:02:07.516Z,97.40
2023-04-17T06:04:34.983Z,97.30
2023-04-17T06:07:03.044Z,97.40
2023-04-17T06:09:30.313Z,97.50
2023-04-17T06:11:57.257Z,97.50
2023-04-17T06:14:24.133Z,97.50
2023-04-17T06:16:51.191Z,97.60
2023-04-17T06:19:18.229Z,97.60
2023-04-17T06:21:45.289Z,97.50
2023-04-17T06:24:12.222Z,97.60
2023-04-17T06:26:39.158Z,97.50
2023-04-17T06:29:06.092Z,97.80
2023-04-17T06:31:33.108Z,97.90
2023-04-17T06:34:00.292Z,97.80
2023-04-17T06:36:27.670Z,97.70
2023-04-17T06:38:54.592Z,97.80
2023-04-17T06:41:21.619Z,97.70
2023-04-17T06:43:48.540Z,97.60
2023-04-17T06:46:15.805Z,97.90
2023-04-17T06:48:42.809Z,97.80
2023-04-17T06:51:09.805Z,98.00
2023-04-17T06:53:36.732Z,98.00
2023-04-17T06:56:03.796Z,98.10
2023-04-17T06:58:30.804Z,98.10
2023-04-17T07:00:57.789Z,97.60
2023-04-17T07:03:24.879Z,97.90
2023-04-17T07:05:52.023Z,97.60
2023-04-17T07:08:22.192Z,97.50
2023-04-17T07:10:49.115Z,97.60
2023-04-17T07:13:16.116Z,97.40
2023-04-17T07:15:43.501Z,97.20
2023-04-17T07:18:11.025Z,96.80
2023-04-17T07:20:37.966Z,96.80
2023-04-17T07:23:04.925Z,97.00
2023-04-17T07:25:31.847Z,97.40
2023-04-17T07:27:58.724Z,97.10
2023-04-17T07:30:25.703Z,97.50
2023-04-17T07:32:52.753Z,97.30
2023-04-17T07:35:19.801Z,97.00
2023-04-17T07:37:46.746Z,97.40
2023-04-17T07:40:14.343Z,97.10
2023-04-17T07:42:41.289Z,96.90
2023-04-17T07:45:08.660Z,97.00
2023-04-17T07:47:35.595Z,97.30
2023-04-17T07:50:02.993Z,97.10
2023-04-17T07:52:30.008Z,96.30
2023-04-17T07:54:57.106Z,96.60
2023-04-17T07:57:26.465Z,96.30
2023-04-17T07:59:53.406Z,96.10
2023-04-17T08:02:21.296Z,96.10
2023-04-17T08:04:49.681Z,96.30
2023-04-17T08:07:18.242Z,96.30
2023-04-17T08:09:45.483Z,95.60
2023-04-17T08:12:12.433Z,95.60
2023-04-17T08:14:40.723Z,95.60
2023-04-17T08:17:07.896Z,95.50
2023-04-17T08:19:34.956Z,95.50
2023-04-17T08:22:03.755Z,95.70
2023-04-17T08:24:31.793Z,95.20
2023-04-17T08:26:58.776Z,94.60
2023-04-17T08:29:26.126Z,94.40
2023-04-17T08:32:00.096Z,94.40
2023-04-17T08:34:33.892Z,94.80
2023-04-17T08:37:00.770Z,94.90
2023-04-17T08:39:27.853Z,95.10
2023-04-17T08:41:58.457Z,95.00
2023-04-17T08:44:25.873Z,95.10
2023-04-17T08:46:53.036Z,95.20
2023-04-17T08:49:19.936Z,95.30
2023-04-17T08:51:47.201Z,95.00
2023-04-17T08:54:14.283Z,95.20
2023-04-17T08:56:41.278Z,94.60
2023-04-17T08:59:08.203Z,94.80
2023-04-17T09:01:35.832Z,94.80
2023-04-17T09:04:02.912Z,94.70
2023-04-17T09:06:48.122Z,94.70
2023-04-17T09:09:15.571Z,94.00
2023-04-17T09:11:42.554Z,94.40
2023-04-17T09:14:28.839Z,94.10
2023-04-17T09:16:55.893Z,94.60
2023-04-17T09:19:22.813Z,94.20
2023-04-17T09:21:49.716Z,94.10
2023-04-17T09:24:31.907Z,94.70
2023-04-17T09:27:18.973Z,94.60
2023-04-17T09:30:02.588Z,94.20
2023-04-17T09:32:31.330Z,94.40
2023-04-17T09:34:59.697Z,94.00
2023-04-17T09:37:27.294Z,93.40
2023-04-17T09:39:57.780Z,93.80
2023-04-17T09:42:24.840Z,93.50
2023-04-17T09:44:51.993Z,93.70
2023-04-17T09:47:19.049Z,93.90
2023-04-17T09:49:50.038Z,93.50
2023-04-17T09:52:17.258Z,93.80
2023-04-17T09:54:44.711Z,93.60
2023-04-17T09:57:12.948Z,94.20
2023-04-17T09:59:41.471Z,93.70
2023-04-17T10:02:09.619Z,94.00
2023-04-17T10:04:39.417Z,93.70
2023-04-17T10:07:06.680Z,93.90
2023-04-17T10:09:33.653Z,93.30
2023-04-17T10:12:02.500Z,93.20
2023-04-17T10:14:37.488Z,92.80
2023-04-17T10:17:22.808Z,92.40
2023-04-17T10:19:49.830Z,92.50
2023-04-17T10:22:19.864Z,92.70
2023-04-17T10:24:53.612Z,92.80
2023-04-17T10:27:26.585Z,92.30
2023-04-17T10:29:54.207Z,92.30
2023-04-17T10:32:24.003Z,91.90
2023-04-17T10:34:51.870Z,92.30
2023-04-17T10:37:19.229Z,92.10
2023-04-17T10:39:49.981Z,91.20
2023-04-17T10:42:17.922Z,91.60
2023-04-17T10:44:45.921Z,91.30
2023-04-17T10:47:14.481Z,92.10
2023-04-17T10:49:54.850Z,90.90
2023-04-17T10:52:45.036Z,91.40
2023-04-17T10:55:17.969Z,91.10
2023-04-17T10:57:55.335Z,90.50
2023-04-17T11:00:42.639Z,90.40
2023-04-17T11:03:09.647Z,90.70
2023-04-17T11:05:43.916Z,90.90
2023-04-17T11:08:11.644Z,91.20
2023-04-17T11:10:38.710Z,90.20
2023-04-17T11:13:05.986Z,90.40
2023-04-17T11:15:34.391Z,90.80
2023-04-17T11:18:02.223Z,90.70
2023-04-17T11:20:30.513Z,90.20
2023-04-17T11:23:03.949Z,90.70
2023-04-17T11:25:31.704Z,90.70
2023-04-17T11:27:59.163Z,90.30
2023-04-17T11:30:29.005Z,89.70
2023-04-17T11:33:03.039Z,89.60
2023-04-17T11:35:29.989Z,90.30
2023-04-17T11:38:05.967Z,90.00
2023-04-17T11:40:33.139Z,89.20
2023-04-17T11:43:05.597Z,90.30
2023-04-17T11:45:33.246Z,90.60
2023-04-17T11:48:00.607Z,90.00
2023-04-17T11:50:31.070Z,90.80
2023-04-17T11:52:59.765Z,89.70
2023-04-17T11:55:34.279Z,88.80
2023-04-17T11:58:05.940Z,88.50
2023-04-17T12:00:33.391Z,88.70
2023-04-17T12:03:01.430Z,87.40
2023-04-17T12:05:29.754Z,87.80
2023-04-17T12:08:00.859Z,90.10
2023-04-17T12:10:36.762Z,90.30
2023-04-17T12:13:03.806Z,89.80
2023-04-17T12:15:30.774Z,89.70
2023-04-17T12:17:57.739Z,87.10
2023-04-17T12:20:26.687Z,87.70
2023-04-17T12:22:53.840Z,86.90
2023-04-17T12:25:20.907Z,87.30
2023-04-17T12:27:49.354Z,85.70
2023-04-17T12:30:16.529Z,86.00
2023-04-17T12:32:48.537Z,87.40
2023-04-17T12:35:15.965Z,87.50
2023-04-17T12:37:48.416Z,86.10
2023-04-17T12:40:16.863Z,86.50
2023-04-17T12:42:49.303Z,87.10
2023-04-17T12:45:17.349Z,88.20
2023-04-17T12:47:44.522Z,88.90
2023-04-17T12:50:12.137Z,89.00
2023-04-17T12:52:39.657Z,90.10
2023-04-17T12:55:07.662Z,89.70
2023-04-17T12:57:38.056Z,89.40
2023-04-17T13:00:09.465Z,89.80
2023-04-17T13:02:36.820Z,87.80
2023-04-17T13:05:04.979Z,87.70
2023-04-17T13:07:32.283Z,85.20
2023-04-17T13:09:59.381Z,86.10
2023-04-17T13:12:26.396Z,87.90
2023-04-17T13:14:53.945Z,88.50
2023-04-17T13:17:21.632Z,89.60
2023-04-17T13:19:48.607Z,90.00
2023-04-17T13:22:17.646Z,89.50
2023-04-17T13:24:44.630Z,88.20
2023-04-17T13:27:11.607Z,88.00
2023-04-17T13:29:38.838Z,88.00
2023-04-17T13:32:06.117Z,88.20
2023-04-17T13:34:33.089Z,88.80
2023-04-17T13:37:00.213Z,89.10
2023-04-17T13:39:27.249Z,89.30
2023-04-17T13:41:55.008Z,89.80
2023-04-17T13:44:22.066Z,89.30
2023-04-17T13:46:49.073Z,88.10
2023-04-17T13:49:16.117Z,89.80
2023-04-17T13:51:43.105Z,88.40
2023-04-17T13:54:10.466Z,89.10
2023-04-17T13:56:37.550Z,88.80
2023-04-17T13:59:07.784Z,90.10
2023-04-17T14:01:34.753Z,90.10
2023-04-17T14:04:01.771Z,90.50
2023-04-17T14:06:29.037Z,89.10
2023-04-17T14:08:56.032Z,89.70
2023-04-17T14:11:24.129Z,87.10
2023-04-17T14:13:51.479Z,90.30
2023-04-17T14:16:19.154Z,91.60
2023-04-17T14:18:47.737Z,91.60
2023-04-17T14:21:15.227Z,91.40
2023-04-17T14:23:42.656Z,91.60
2023-04-17T14:26:10.078Z,92.10
2023-04-17T14:28:37.202Z,92.40
2023-04-17T14:31:04.478Z,92.70
2023-04-17T14:33:31.473Z,92.70
2023-04-17T14:35:59.223Z,91.90
2023-04-17T14:38:26.236Z,92.70
2023-04-17T14:40:53.386Z,92.80
2023-04-17T14:43:20.446Z,92.90
2023-04-17T14:45:47.924Z,92.80
2023-04-17T14:48:14.900Z,92.30
2023-04-17T14:50:41.897Z,92.50
2023-04-17T14:53:08.802Z,92.90
2023-04-17T14:55:36.818Z,92.70
2023-04-17T14:58:03.884Z,92.50
2023-04-17T15:00:31.870Z,91.80
2023-04-17T15:02:59.022Z,91.30
2023-04-17T15:05:26.245Z,91.40
2023-04-17T15:07:53.231Z,92.00
2023-04-17T15:10:20.270Z,91.30
2023-04-17T15:12:47.301Z,90.70
2023-04-17T15:15:14.375Z,90.70
2023-04-17T15:17:41.697Z,90.80
2023-04-17T15:20:08.811Z,91.70
2023-04-17T15:22:35.840Z,91.90
2023-04-17T15:25:02.883Z,91.50
2023-04-17T15:27:29.811Z,91.80
2023-04-17T15:29:56.832Z,91.50
2023-04-17T15:32:23.854Z,91.40
2023-04-17T15:34:50.889Z,91.00
2023-04-17T15:37:17.838Z,91.60
2023-04-17T15:39:44.931Z,91.30
2023-04-17T15:42:11.947Z,90.80
2023-04-17T15:44:38.985Z,90.60
2023-04-17T15:47:06.644Z,90.80
2023-04-17T15:49:33.808Z,91.20
2023-04-17T15:52:00.862Z,91.10
2023-04-17T15:54:28.057Z,91.20
2023-04-17T15:56:55.938Z,91.70
2023-04-17T15:59:23.116Z,91.80
2023-04-17T16:01:50.415Z,91.30
2023-04-17T16:04:19.407Z,90.90
2023-04-17T16:06:46.580Z,91.10
2023-04-17T16:09:16.116Z,91.20
2023-04-17T16:11:43.236Z,91.20
2023-04-17T16:14:10.126Z,91.10
2023-04-17T16:16:37.086Z,91.40
2023-04-17T16:19:03.966Z,91.30
2023-04-17T16:21:31.098Z,91.50
2023-04-17T16:23:58.602Z,91.20
2023-04-17T16:26:25.925Z,91.10
2023-04-17T16:28:52.849Z,91.50
2023-04-17T16:31:21.261Z,91.50
2023-04-17T16:33:48.399Z,91.20
2023-04-17T16:36:15.399Z,91.10
2023-04-17T16:38:42.309Z,91.00
2023-04-17T16:41:09.261Z,91.10
2023-04-17T16:43:36.361Z,90.70
2023-04-17T16:46:10.918Z,90.60
2023-04-17T16:48:45.920Z,90.80
2023-04-17T16:51:13.048Z,91.10
2023-04-17T16:53:41.167Z,91.30
2023-04-17T16:56:08.337Z,91.00
2023-04-17T16:58:35.264Z,91.00
2023-04-17T17:01:02.294Z,91.20
2023-04-17T17:03:29.751Z,91.60
2023-04-17T17:05:57.405Z,91.60
2023-04-17T17:08:24.388Z,91.50
2023-04-17T17:10:51.445Z,91.40
2023-04-17T17:13:18.400Z,91.50
2023-04-17T17:15:45.356Z,91.50
2023-04-17T17:18:12.240Z,91.40
2023-04-17T17:20:39.149Z,91.70
2023-04-17T17:23:06.267Z,91.70
2023-04-17T17:25:33.202Z,91.80
2023-04-17T17:28:00.175Z,92.00
2023-04-17T17:30:27.049Z,92.10
2023-04-17T17:32:54.061Z,91.90
2023-04-17T17:35:21.132Z,92.30
2023-04-17T17:37:48.036Z,92.50
2023-04-17T17:40:14.965Z,92.50
2023-04-17T17:42:41.995Z,92.50
2023-04-17T17:45:09.176Z,92.60
2023-04-17T17:47:36.190Z,92.60
2023-04-17T17:50:03.165Z,92.70
2023-04-17T17:52:30.039Z,92.70
2023-04-17T17:54:56.956Z,92.70
2023-04-17T17:57:23.955Z,92.70
2023-04-17T17:59:50.918Z,92.60
2023-04-17T18:02:18.107Z,92.40
2023-04-17T18:04:45.222Z,92.20
2023-04-17T18:07:12.219Z,91.90
2023-04-17T18:09:39.091Z,91.70
2023-04-17T18:12:06.095Z,91.60
2023-04-17T18:14:33.052Z,91.70
2023-04-17T18:16:59.968Z,91.80
2023-04-17T18:19:26.909Z,91.80
2023-04-17T18:21:53.832Z,91.60
2023-04-17T18:24:20.909Z,91.70
2023-04-17T18:26:48.332Z,91.60
2023-04-17T18:29:15.344Z,91.80
2023-04-17T18:31:42.426Z,91.90
2023-04-17T18:34:09.560Z,92.00
2023-04-17T18:36:36.565Z,91.90
2023-04-17T18:39:03.537Z,92.10
2023-04-17T18:41:30.637Z,92.30
2023-04-17T18:43:57.676Z,92.20
2023-04-17T18:46:26.161Z,92.10
2023-04-17T18:48:53.097Z,92.00
2023-04-17T18:51:20.645Z,91.80
2023-04-17T18:53:48.217Z,92.30
2023-04-17T18:56:15.732Z,92.40
2023-04-17T18:58:42.918Z,92.40
2023-04-17T19:01:10.623Z,92.50
2023-04-17T19:03:38.501Z,92.20
2023-04-17T19:06:06.654Z,92.30
2023-04-17T19:08:33.921Z,92.30
2023-04-17T19:11:00.981Z,92.50
2023-04-17T19:13:27.947Z,92.30
2023-04-17T19:15:54.899Z,92.30
2023-04-17T19:18:22.019Z,92.30
2023-04-17T19:20:48.961Z,92.40
2023-04-17T19:23:15.976Z,92.20
2023-04-17T19:25:43.063Z,92.30
2023-04-17T19:28:13.298Z,92.20
2023-04-17T19:30:40.258Z,92.30
2023-04-17T19:33:07.533Z,92.50
2023-04-17T19:35:34.510Z,92.40
2023-04-17T19:38:01.803Z,92.40
2023-04-17T19:40:28.795Z,92.40
2023-04-17T19:43:00.960Z,92.50
2023-04-17T19:45:28.339Z,92.50
2023-04-17T19:47:57.092Z,92.50
2023-04-17T19:50:27.062Z,92.70
2023-04-17T19:52:54.312Z,92.70
2023-04-17T19:55:21.350Z,92.60
2023-04-17T19:57:50.284Z,92.50
2023-04-17T20:00:17.649Z,92.40
2023-04-17T20:02:44.747Z,92.30
2023-04-17T20:05:11.865Z,92.30
2023-04-17T20:07:38.806Z,92.30
2023-04-17T20:10:06.221Z,92.30
2023-04-17T20:12:33.182Z,92.50
2023-04-17T20:15:00.147Z,92.40
2023-04-17T20:17:27.172Z,92.30
2023-04-17T20:19:54.131Z,92.60
2023-04-17T20:22:21.141Z,92.20
2023-04-17T20:24:50.571Z,92.30
2023-04-17T20:27:17.845Z,92.70
2023-04-17T20:29:44.889Z,92.90
2023-04-17T20:32:11.897Z,92.60
2023-04-17T20:34:39.731Z,92.70
2023-04-17T20:37:06.675Z,92.70
2023-04-17T20:39:33.633Z,92.70
2023-04-17T20:42:01.499Z,92.60
2023-04-17T20:44:28.460Z,92.70
2023-04-17T20:46:55.538Z,92.50
2023-04-17T20:49:22.701Z,92.80
2023-04-17T20:51:49.656Z,92.70
2023-04-17T20:54:16.669Z,92.80
2023-04-17T20:56:43.963Z,92.80
2023-04-17T20:59:11.036Z,92.80
2023-04-17T21:01:38.052Z,92.60
2023-04-17T21:04:05.380Z,92.60
2023-04-17T21:06:32.300Z,92.60
2023-04-17T21:08:59.191Z,92.90
2023-04-17T21:11:26.446Z,92.80
2023-04-17T21:13:53.756Z,92.80
2023-04-17T21:16:20.881Z,92.50
2023-04-17T21:18:47.837Z,92.50
2023-04-17T21:21:14.890Z,92.60
2023-04-17T21:23:41.830Z,92.70
2023-04-17T21:26:08.712Z,92.90
2023-04-17T21:28:38.396Z,92.80
2023-04-17T21:31:09.841Z,92.80
2023-04-17T21:33:36.835Z,92.70
2023-04-17T21:36:03.889Z,92.80
2023-04-17T21:38:30.868Z,92.80
2023-04-17T21:40:58.135Z,92.90
2023-04-17T21:43:25.097Z,92.80
2023-04-17T21:45:52.279Z,92.90
2023-04-17T21:48:19.190Z,93.00
2023-04-17T21:50:46.085Z,92.80
2023-04-17T21:53:12.993Z,92.90
2023-04-17T21:55:39.960Z,92.90
2023-04-17T21:58:07.100Z,93.10
2023-04-17T22:00:34.135Z,93.00
2023-04-17T22:03:01.192Z,93.00
2023-04-17T22:05:28.175Z,93.00
2023-04-17T22:07:55.690Z,93.00
2023-04-17T22:10:23.188Z,93.10
2023-04-17T22:12:50.925Z,93.10
2023-04-17T22:15:17.898Z,93.00
2023-04-17T22:17:44.936Z,93.10
2023-04-17T22:20:12.145Z,93.10
2023-04-17T22:22:39.100Z,93.10
2023-04-17T22:25:06.193Z,93.00
2023-04-17T22:27:33.894Z,93.10
2023-04-17T22:30:00.893Z,93.00
2023-04-17T22:32:27.889Z,93.00
2023-04-17T22:34:54.879Z,93.10
2023-04-17T22:37:21.928Z,93.00
2023-04-17T22:39:49.628Z,93.10
2023-04-17T22:42:16.572Z,92.90
2023-04-17T22:44:43.586Z,92.80
2023-04-17T22:47:10.512Z,93.00
2023-04-17T22:49:40.622Z,93.00
2023-04-17T22:52:07.585Z,92.90
2023-04-17T22:54:34.765Z,92.90
2023-04-17T22:57:04.927Z,92.90
2023-04-17T22:59:31.978Z,93.20
